Jackson County Reynolds Field
KJXN : rendu visible

Aérodrome :











RETROUVEZ-NOUS SUR...

 
LOGIN :

S'inscrire | Disclaimer

   EN    FR    IT 

 









Légende :    VFR   VFR Marginal   IFR   IFR Intensif   IFR Très Intensif
Visi : 
Plafond : 
>= 8 km
>= 3000ft
5 à 8 km
1000 à 3000 ft
1500m à 5 km
500 à 1000 ft
800 à 1500m
200 à 500 ft
< 800m
< 200 ft
Symboles :   Orages  Brouillard  Fortes neiges  Fortes précipitations  Vent > 20 kt






- Altitude de l'aérodrome : 1001 ft


KJXN - Jackson County Reynolds Field

DERNIER METAR :
  • 080956Z AUTO 32003KT 6SM BR OVC016 11/10 A2968 RMK AO2 SLP048 T01110100

METARs EXPIRÉS :
  • 080937Z AUTO 31004KT 6SM BR OVC015 11/10 A2967 RMK AO2 T01110100
  • 080920Z AUTO 32005KT 5SM BR BKN014 11/10 A2967 RMK AO2 T01110100
  • 080856Z AUTO 32006KT 5SM BR FEW005 11/10 A2967 RMK AO2 SLP043 T01110100 53017
  • 080846Z AUTO 32007KT 4SM BR SCT005 12/10 A2966 RMK AO2 T01170100
  • 080822Z AUTO 32009KT 4SM BR OVC005 12/11 A2965 RMK AO2 T01170106
  • 080756Z AUTO 32009G16KT 4SM BR OVC004 12/11 A2963 RMK AO2 SLP030 T01220111
  • 080741Z AUTO 31012G20KT 4SM BR OVC004 13/12 A2963 RMK AO2 CIG 003V008 T01280117
  • 080732Z AUTO 32008KT 5SM BR BKN006 14/12 A2962 RMK AO2 CIG 004V009 T01390122

TAF KJXN
Valide du 08 à 08h jusqu'au 09 à 06h UTC


080802Z 0808/0906 32009G16KT 4SM BR OVC004
FM081000 32005KT 2SM BR OVC004
FM081400 31006KT 4SM BR OVC008
FM081500 30006KT P6SM SCT040
FM090100 28010KT P6SM -SHRA OVC035
FM090500 28008KT 4SM -SHRA BR OVC015



MET'MAP, la Météo Aéronautique d'un coup d'oeil ! - Copyright ORBIFLY Décembre 2007 - Disclaimer

ORBIFLY MET'MAP TEAM :

Programmation & Développement : Alexandra Zaïnal
Sur une idée originale de : Baudouin d'Aumeries
Assistance à la programmation : Marc-Olivier Méhu
Soutien technique & logistique : Manuel Goepfert

Contact : metmap@orbifly.com




SOURCES & CREDITS :

   NOAA       Earth
Advisory